MUC | München Airways

 METAR UND TAF INFORMATION

METAR FOR LGMK
ADDS - METARS form results

(0325 UTC 24 January 2019)
Data provider http://aviationweather.gov/metar/data/
 
Forecast for: LGMK (MIKONOS ISLAND , GR)
Text: TAF LGMK 240200Z 2403/2412 23015KT 9999 SCT020
Forecast period: 0300 to 1200 UTC 24 January 2019
Forecast type: FROM: standard forecast or significant change
Winds: from the SW (230 degrees) at 17 MPH (15 knots; 7.7 m/s)
Visibility: 6 or more miles 10+ km)
Ceiling: at least 12,000 feet AGL
Clouds: scattered clouds at 2000 feet AGL
Weather: no significant weather forecast for this period
Text: PROB40
Forecast period: 0300 to 0600 UTC 24 January 2019
Forecast type: TEMPORARY: The following changes expected for less than half the time period
Visibility: 1.86 miles (2.99 km)
Ceiling: 2000 feet AGL
Clouds: few clouds at 1600 feet AGL
broken clouds at 2000 feet AGL
Weather: TSRA  (rain associated with thunderstorm(s))

 FLUGHAFENKARTE

 RUNWAY INFORMATION
Runway 16 Runway length 6244 ft Runway width 98 ft
Runway elevation 395 ft Runway displaced threshold 0 ft Runway heading 160
Runway 34 Runway length 6244 ft Runway width 98 ft
Runway elevation 388 ft Runway displaced threshold 0 ft Runway heading 340

 AIRPORT FREQUENCIES
Type A/G Name RDO Frequency 563.7 MHZ
Type APP Name APP Frequency 118.75 MHZ
Type TWR Name TWR Frequency 118.75 MHZ

 AIRPORT NEAR NAVIGATION AIDS
Type VOR-DME Name Mikonos Frequency 110000 KHZ
Type NDB Name Mikonos Frequency 401 KHZ